Tastyp, Russia
Current Conditions -  °F | °C
As of 8:30 PM on Saturday 25 Oct 2014 (Local Time) from UNAA Reporting Station
Haze Haze  
Wind Chill: 36°   Ceiling: 16000
Heat Index: 36°   Visibility: 2mi
Dew Point: 34°   Wind: 2mph
Humidity: 93%   Direction: NA
Pressure: 29.88"   Gusts: NA
Location:  52.8°N, 89.92°E
Report Text: UNAA 251330Z VRB01MPS 3200 BR BKN160 02/01 Q1012 TEMPO 0900 FGVV002 RMK QFE737 52290055
Loading
Personal Weather Stations






























Interactive Weather Map
Tropical Storm Tracking
New forecast layout! Learn more

10-Day Weather Forecast

Advertisements
Track Severe Weather on mobile